This is the latest recevied weather packets stored in our database for station/object EA1FWM-13. If no packets are shown the sender has not sent any weather packets the latest 10 day(s).
| Time | Temp. | Humidity | Pressure | Rain* | Wind** | Luminosity | Snow |
|---|---|---|---|---|---|---|---|
| 1777712015 | 15° C | 78% | 1019.3 hPa | - | - | - | - |
| 1777711114 | 14.44° C | 77% | 1019.4 hPa | - | - | - | - |
| 1777710212 | 14.44° C | 79% | 1019.5 hPa | - | - | - | - |
| 1777709311 | 12.78° C | 83% | 1019.6 hPa | - | - | - | - |
| 1777708410 | 12.78° C | 83% | 1019.6 hPa | - | - | - | - |
| 1777707510 | 13.33° C | 84% | 1019.5 hPa | - | - | - | - |
| 1777706609 | 14.44° C | 78% | 1019.6 hPa | - | - | - | - |
| 1777705708 | 13.33° C | 86% | 1019.5 hPa | - | - | - | - |
| 1777704807 | 11.67° C | 90% | 1019.5 hPa | - | - | - | - |
| 1777703905 | 10.56° C | 91% | 1019.3 hPa | - | - | - | - |
| 1777703004 | 10.56° C | 92% | 1019.3 hPa | - | - | - | - |
| 1777702104 | 10° C | 93% | 1019.2 hPa | - | - | - | - |
| 1777701203 | 9.44° C | 93% | 1019.3 hPa | - | - | - | - |
| 1777700302 | 9.44° C | 92% | 1019.2 hPa | - | - | - | - |
| 1777699401 | 10° C | 92% | 1018.9 hPa | - | - | - | - |
| 1777698500 | 10° C | 92% | 1018.9 hPa | - | - | - | - |
| 1777697599 | 10° C | 92% | 1019.1 hPa | - | - | - | - |
| 1777696698 | 10° C | 92% | 1019.1 hPa | - | - | - | - |
| 1777695798 | 10° C | 92% | 1019.1 hPa | - | - | - | - |
| 1777694897 | 10° C | 91% | 1019.2 hPa | - | - | - | - |
| 1777693996 | 10° C | 91% | 1019.2 hPa | - | - | - | - |
| 1777693095 | 10° C | 91% | 1019.2 hPa | - | - | - | - |
| 1777692194 | 10.56° C | 88% | 1019.1 hPa | - | - | - | - |
| 1777691293 | 11.67° C | 88% | 1019.1 hPa | - | - | - | - |
| 1777690392 | 11.67° C | 88% | 1019.3 hPa | - | - | - | - |
* Rain since midnight (hover to see other rain measurements)
** Current wind speed in m/s (hover to see current wind gust speed)